createdAt,value
2022-09-02T00:01:18.011Z,99.90
2022-09-02T00:03:45.700Z,99.90
2022-09-02T00:06:14.201Z,99.90
2022-09-02T00:08:41.908Z,99.90
2022-09-02T00:11:13.567Z,99.90
2022-09-02T00:13:41.241Z,99.90
2022-09-02T00:16:11.033Z,99.90
2022-09-02T00:18:39.640Z,99.90
2022-09-02T00:21:14.384Z,99.90
2022-09-02T00:23:43.815Z,99.90
2022-09-02T00:26:12.431Z,99.90
2022-09-02T00:28:51.019Z,99.90
2022-09-02T00:31:25.582Z,99.90
2022-09-02T00:33:53.589Z,99.90
2022-09-02T00:36:21.429Z,99.90
2022-09-02T00:38:49.206Z,99.90
2022-09-02T00:41:18.742Z,99.90
2022-09-02T00:43:53.592Z,99.90
2022-09-02T00:46:24.978Z,99.90
2022-09-02T00:48:58.084Z,99.90
2022-09-02T00:51:28.435Z,99.90
2022-09-02T00:53:55.655Z,99.90
2022-09-02T00:56:29.383Z,99.90
2022-09-02T00:58:57.932Z,99.90
2022-09-02T01:01:25.255Z,99.90
2022-09-02T01:03:53.149Z,99.90
2022-09-02T01:06:25.703Z,99.90
2022-09-02T01:09:00.328Z,99.90
2022-09-02T01:11:45.039Z,99.90
2022-09-02T01:14:13.706Z,99.90
2022-09-02T01:16:45.433Z,99.90
2022-09-02T01:19:43.417Z,99.90
2022-09-02T01:22:22.794Z,99.90
2022-09-02T01:24:50.745Z,99.90
2022-09-02T01:27:20.760Z,99.90
2022-09-02T01:29:55.595Z,99.90
2022-09-02T01:32:24.232Z,99.90
2022-09-02T01:34:51.698Z,99.90
2022-09-02T01:37:20.365Z,99.90
2022-09-02T01:39:48.417Z,99.90
2022-09-02T01:42:16.826Z,99.90
2022-09-02T01:44:44.604Z,99.90
2022-09-02T01:47:20.501Z,99.90
2022-09-02T01:49:48.649Z,99.90
2022-09-02T01:52:17.122Z,99.90
2022-09-02T01:54:44.639Z,99.90
2022-09-02T01:57:12.241Z,99.90
2022-09-02T01:59:39.784Z,99.90
2022-09-02T02:02:07.300Z,99.90
2022-09-02T02:04:34.445Z,99.90
2022-09-02T02:07:02.752Z,99.90
2022-09-02T02:09:30.037Z,99.90
2022-09-02T02:11:57.541Z,99.90
2022-09-02T02:14:24.949Z,99.90
2022-09-02T02:16:52.193Z,99.90
2022-09-02T02:19:19.306Z,99.90
2022-09-02T02:21:46.877Z,99.90
2022-09-02T02:24:15.360Z,99.90
2022-09-02T02:26:42.706Z,99.90
2022-09-02T02:29:10.600Z,99.90
2022-09-02T02:31:38.010Z,99.90
2022-09-02T02:34:05.481Z,99.90
2022-09-02T02:36:33.191Z,99.90
2022-09-02T02:39:01.664Z,99.90
2022-09-02T02:41:30.960Z,99.90
2022-09-02T02:43:58.727Z,99.90
2022-09-02T02:46:26.586Z,99.90
2022-09-02T02:48:54.057Z,99.90
2022-09-02T02:51:21.373Z,99.90
2022-09-02T02:53:48.472Z,99.90
2022-09-02T02:56:15.698Z,99.90
2022-09-02T02:58:43.232Z,99.90
2022-09-02T03:01:10.884Z,99.90
2022-09-02T03:03:39.357Z,99.90
2022-09-02T03:06:08.022Z,99.90
2022-09-02T03:08:36.337Z,99.90
2022-09-02T03:11:05.909Z,99.90
2022-09-02T03:13:34.583Z,99.90
2022-09-02T03:16:03.816Z,99.90
2022-09-02T03:18:31.089Z,99.90
2022-09-02T03:20:58.505Z,99.90
2022-09-02T03:23:26.104Z,99.90
2022-09-02T03:25:53.210Z,99.90
2022-09-02T03:28:20.546Z,99.90
2022-09-02T03:30:47.756Z,99.90
2022-09-02T03:33:15.325Z,99.90
2022-09-02T03:35:44.796Z,99.90
2022-09-02T03:38:12.865Z,99.90
2022-09-02T03:40:41.288Z,99.90
2022-09-02T03:43:09.391Z,99.90
2022-09-02T03:45:36.692Z,99.90
2022-09-02T03:48:04.652Z,99.90
2022-09-02T03:50:37.611Z,99.90
2022-09-02T03:53:04.885Z,99.90
2022-09-02T03:55:32.371Z,99.90
2022-09-02T03:57:59.973Z,99.90
2022-09-02T04:00:34.133Z,99.90
2022-09-02T04:03:02.228Z,99.90
2022-09-02T04:05:29.767Z,99.90
2022-09-02T04:07:57.508Z,99.90
2022-09-02T04:10:25.073Z,99.90
2022-09-02T04:12:52.878Z,99.90
2022-09-02T04:15:20.933Z,99.90
2022-09-02T04:17:48.396Z,99.90
2022-09-02T04:20:16.252Z,99.90
2022-09-02T04:22:43.409Z,99.90
2022-09-02T04:25:12.109Z,99.90
2022-09-02T04:27:39.703Z,99.90
2022-09-02T04:30:09.060Z,99.90
2022-09-02T04:32:40.711Z,99.90
2022-09-02T04:35:09.200Z,99.90
2022-09-02T04:37:36.492Z,99.90
2022-09-02T04:40:04.270Z,99.90
2022-09-02T04:42:31.695Z,99.90
2022-09-02T04:44:58.738Z,99.90
2022-09-02T04:47:27.859Z,99.90
2022-09-02T04:49:55.342Z,99.90
2022-09-02T04:52:22.703Z,99.90
2022-09-02T04:54:52.322Z,99.90
2022-09-02T04:57:20.662Z,99.90
2022-09-02T04:59:47.815Z,99.90
2022-09-02T05:02:15.376Z,99.90
2022-09-02T05:04:42.643Z,99.90
2022-09-02T05:07:09.879Z,99.90
2022-09-02T05:09:37.440Z,99.90
2022-09-02T05:12:06.110Z,99.90
2022-09-02T05:14:33.393Z,99.90
2022-09-02T05:17:06.721Z,99.90
2022-09-02T05:19:34.755Z,99.90
2022-09-02T05:22:02.399Z,99.90
2022-09-02T05:24:29.868Z,99.90
2022-09-02T05:26:57.207Z,99.90
2022-09-02T05:29:24.948Z,99.90
2022-09-02T05:31:52.243Z,99.90
2022-09-02T05:34:20.014Z,99.90
2022-09-02T05:36:47.983Z,99.90
2022-09-02T05:39:15.154Z,99.90
2022-09-02T05:41:42.512Z,99.90
2022-09-02T05:44:09.942Z,99.90
2022-09-02T05:46:37.378Z,99.90
2022-09-02T05:49:17.971Z,99.90
2022-09-02T05:51:53.289Z,99.90
2022-09-02T05:54:28.757Z,99.90
2022-09-02T05:56:59.034Z,99.90
2022-09-02T05:59:27.996Z,99.90
2022-09-02T06:01:56.693Z,99.90
2022-09-02T06:04:25.093Z,99.90
2022-09-02T06:06:52.728Z,99.90
2022-09-02T06:09:22.312Z,99.90
2022-09-02T06:11:51.046Z,99.90
2022-09-02T06:14:21.976Z,99.90
2022-09-02T06:16:51.041Z,99.90
2022-09-02T06:19:20.530Z,99.90
2022-09-02T06:21:49.417Z,99.90
2022-09-02T06:24:17.277Z,99.90
2022-09-02T06:26:46.155Z,99.90
2022-09-02T06:29:14.337Z,99.90
2022-09-02T06:31:43.997Z,99.90
2022-09-02T06:34:13.856Z,99.90
2022-09-02T06:36:43.264Z,99.90
2022-09-02T06:39:18.113Z,99.90
2022-09-02T06:41:49.270Z,99.90
2022-09-02T06:44:18.546Z,99.90
2022-09-02T06:46:54.119Z,99.90
2022-09-02T06:49:23.135Z,99.90
2022-09-02T06:51:54.526Z,99.90
2022-09-02T06:54:23.118Z,99.90
2022-09-02T06:56:53.888Z,99.90
2022-09-02T06:59:22.344Z,99.90
2022-09-02T07:01:50.301Z,99.90
2022-09-02T07:04:37.345Z,99.90
2022-09-02T07:07:06.498Z,99.90
2022-09-02T07:09:34.583Z,99.90
2022-09-02T07:12:05.121Z,99.90
2022-09-02T07:14:38.733Z,99.90
2022-09-02T07:17:07.722Z,99.90
2022-09-02T07:19:36.003Z,99.90
2022-09-02T07:22:06.427Z,99.90
2022-09-02T07:24:34.335Z,99.90
2022-09-02T07:27:01.780Z,99.90
2022-09-02T07:29:28.965Z,99.90
2022-09-02T07:31:57.041Z,99.90
2022-09-02T07:34:24.585Z,99.90
2022-09-02T07:36:52.675Z,99.90
2022-09-02T07:39:21.126Z,99.90
2022-09-02T07:41:50.789Z,99.90
2022-09-02T07:44:20.039Z,99.90
2022-09-02T07:46:47.894Z,99.90
2022-09-02T07:49:16.873Z,99.90
2022-09-02T07:51:49.899Z,99.90
2022-09-02T07:54:20.853Z,99.90
2022-09-02T07:56:49.876Z,99.90
2022-09-02T07:59:19.025Z,99.90
2022-09-02T08:01:48.436Z,99.90
2022-09-02T08:04:18.865Z,99.90
2022-09-02T08:06:47.448Z,99.90
2022-09-02T08:09:15.133Z,99.90
2022-09-02T08:11:45.284Z,99.90
2022-09-02T08:14:18.143Z,99.90
2022-09-02T08:16:47.395Z,99.90
2022-09-02T08:19:15.499Z,99.90
2022-09-02T08:21:42.957Z,99.90
2022-09-02T08:24:16.751Z,99.90
2022-09-02T08:26:43.979Z,99.90
2022-09-02T08:29:12.023Z,99.90
2022-09-02T08:31:39.690Z,99.90
2022-09-02T08:34:07.098Z,99.90
2022-09-02T08:36:34.645Z,99.90
2022-09-02T08:39:04.451Z,99.90
2022-09-02T08:41:51.788Z,99.90
2022-09-02T08:44:24.551Z,99.90
2022-09-02T08:46:59.476Z,99.90
2022-09-02T08:49:35.456Z,99.90
2022-09-02T08:52:05.359Z,99.90
2022-09-02T08:54:44.068Z,99.90
2022-09-02T08:57:12.221Z,99.90
2022-09-02T09:02:56.714Z,99.90
2022-09-02T09:05:52.108Z,99.90
2022-09-02T09:08:40.420Z,99.90
2022-09-02T09:11:33.539Z,99.90
2022-09-02T09:14:09.952Z,99.90
2022-09-02T09:17:02.664Z,99.90
2022-09-02T09:19:50.232Z,99.90
2022-09-02T09:22:26.668Z,99.90
2022-09-02T09:24:55.158Z,99.90
2022-09-02T09:27:23.353Z,99.90
2022-09-02T09:29:51.692Z,99.90
2022-09-02T09:32:35.876Z,99.90
2022-09-02T09:35:07.924Z,99.90
2022-09-02T09:37:48.192Z,99.90
2022-09-02T09:40:21.810Z,99.90
2022-09-02T09:42:55.498Z,99.90
2022-09-02T09:45:39.033Z,99.90
2022-09-02T09:48:27.833Z,99.90
2022-09-02T09:50:58.637Z,99.90
2022-09-02T09:53:26.902Z,99.90
2022-09-02T09:56:05.327Z,99.90
2022-09-02T09:58:42.284Z,99.90
2022-09-02T10:01:13.809Z,99.90
2022-09-02T10:03:58.445Z,99.90
2022-09-02T10:06:32.344Z,99.90
2022-09-02T10:09:03.454Z,99.90
2022-09-02T10:11:36.787Z,99.90
2022-09-02T10:14:07.186Z,99.90
2022-09-02T10:16:50.085Z,99.90
2022-09-02T10:19:34.452Z,99.90
2022-09-02T10:22:14.234Z,99.90
2022-09-02T10:25:02.883Z,99.90
2022-09-02T10:27:54.579Z,99.90
2022-09-02T10:30:24.601Z,99.90
2022-09-02T10:33:25.527Z,99.90
2022-09-02T10:36:03.551Z,99.90
2022-09-02T10:38:44.822Z,99.90
2022-09-02T10:41:54.005Z,99.90
2022-09-02T10:44:36.887Z,99.90
2022-09-02T10:47:31.622Z,99.90
2022-09-02T10:50:08.142Z,99.90
2022-09-02T10:52:57.407Z,99.90
2022-09-02T10:55:45.226Z,99.90
2022-09-02T10:58:39.180Z,99.90
2022-09-02T11:01:10.834Z,99.90
2022-09-02T11:03:53.505Z,99.90
2022-09-02T11:06:31.692Z,99.90
2022-09-02T11:09:53.071Z,99.90
2022-09-02T11:12:32.554Z,99.90
2022-09-02T11:15:11.857Z,99.90
2022-09-02T11:17:50.636Z,99.90
2022-09-02T11:20:41.854Z,99.90
2022-09-02T11:23:23.527Z,99.90
2022-09-02T11:26:27.782Z,99.90
2022-09-02T11:29:05.466Z,99.90
2022-09-02T11:31:43.974Z,99.90
2022-09-02T11:34:37.559Z,99.90
2022-09-02T11:37:08.075Z,99.00
2022-09-02T11:39:59.182Z,99.20
2022-09-02T11:43:33.339Z,98.30
2022-09-02T11:46:26.184Z,99.50
2022-09-02T11:49:01.600Z,99.10
2022-09-02T11:52:05.112Z,98.40
2022-09-02T11:54:43.020Z,98.70
2022-09-02T11:57:52.522Z,97.20
2022-09-02T12:00:55.755Z,99.20
2022-09-02T12:03:44.164Z,98.90
2022-09-02T12:06:21.926Z,97.90
2022-09-02T12:08:50.277Z,97.60
2022-09-02T12:11:43.792Z,98.30
2022-09-02T12:14:32.750Z,97.60
2022-09-02T12:17:04.765Z,97.10
2022-09-02T12:23:53.266Z,97.30
2022-09-02T12:26:37.175Z,96.40
2022-09-02T12:29:32.951Z,96.10
2022-09-02T12:32:01.173Z,95.80
2022-09-02T12:34:30.031Z,96.00
2022-09-02T12:37:01.731Z,97.30
2022-09-02T12:39:29.723Z,96.80
2022-09-02T12:42:11.240Z,95.80
2022-09-02T12:45:04.745Z,95.90
2022-09-02T12:47:59.295Z,96.10
2022-09-02T12:51:09.741Z,96.40
2022-09-02T12:53:50.016Z,96.20
2022-09-02T12:56:24.225Z,96.10
2022-09-02T12:59:01.611Z,96.10
2022-09-02T13:02:08.669Z,97.30
2022-09-02T13:04:50.226Z,96.90
2022-09-02T13:07:42.435Z,96.10
2022-09-02T13:10:35.910Z,95.40
2022-09-02T13:13:19.417Z,95.40
2022-09-02T13:16:15.615Z,96.40
2022-09-02T13:20:11.363Z,96.50
2022-09-02T13:22:55.195Z,96.00
2022-09-02T13:25:53.097Z,96.00
2022-09-02T13:28:39.465Z,96.80
2022-09-02T13:31:21.200Z,96.70
2022-09-02T13:34:15.729Z,97.30
2022-09-02T13:36:47.340Z,97.20
2022-09-02T13:39:18.796Z,96.10
2022-09-02T13:41:47.445Z,98.40
2022-09-02T13:44:32.215Z,96.60
2022-09-02T13:47:05.298Z,96.50
2022-09-02T13:49:38.388Z,97.70
2022-09-02T13:52:17.570Z,96.50
2022-09-02T13:54:57.725Z,97.00
2022-09-02T13:57:27.959Z,97.10
2022-09-02T13:59:57.208Z,96.30
2022-09-02T14:02:34.253Z,95.80
2022-09-02T14:05:21.318Z,95.70
2022-09-02T14:07:51.997Z,99.00
2022-09-02T14:10:22.713Z,96.80
2022-09-02T14:12:51.261Z,96.00
2022-09-02T14:15:25.332Z,96.90
2022-09-02T14:18:08.939Z,97.00
2022-09-02T14:20:38.729Z,97.00
2022-09-02T14:23:06.461Z,96.90
2022-09-02T14:25:38.738Z,97.40
2022-09-02T14:28:18.658Z,96.60
2022-09-02T14:30:57.188Z,97.30
2022-09-02T14:33:36.407Z,97.80
2022-09-02T14:36:21.372Z,98.20
2022-09-02T14:38:48.677Z,97.70
2022-09-02T14:41:33.192Z,98.10
2022-09-02T14:44:10.217Z,97.80
2022-09-02T14:46:47.153Z,98.00
2022-09-02T14:49:28.268Z,98.20
2022-09-02T14:51:58.690Z,97.50
2022-09-02T14:54:42.414Z,98.20
2022-09-02T14:57:32.687Z,98.40
2022-09-02T15:00:13.918Z,98.90
2022-09-02T15:02:45.203Z,99.40
2022-09-02T15:05:14.709Z,99.70
2022-09-02T15:07:42.942Z,99.70
2022-09-02T15:10:10.504Z,99.30
2022-09-02T15:12:48.024Z,99.80
2022-09-02T15:15:16.680Z,99.20
2022-09-02T15:17:44.044Z,98.80
2022-09-02T15:20:11.984Z,98.80
2022-09-02T15:22:39.623Z,98.90
2022-09-02T15:25:08.141Z,98.80
2022-09-02T15:27:39.641Z,99.40
2022-09-02T15:30:09.455Z,99.90
2022-09-02T15:32:40.097Z,99.90
2022-09-02T15:35:08.431Z,99.90
2022-09-02T15:37:38.106Z,99.90
2022-09-02T15:40:09.117Z,99.90
2022-09-02T15:42:37.324Z,99.90
2022-09-02T15:45:08.715Z,99.90
2022-09-02T15:47:36.749Z,99.90
2022-09-02T15:50:07.751Z,99.90
2022-09-02T15:52:36.221Z,99.90
2022-09-02T15:55:03.825Z,99.90
2022-09-02T15:57:31.369Z,99.90
2022-09-02T15:59:58.581Z,99.90
2022-09-02T16:02:25.931Z,99.90
2022-09-02T16:04:53.350Z,99.90
2022-09-02T16:07:21.094Z,99.90
2022-09-02T16:09:48.143Z,99.90
2022-09-02T16:12:15.904Z,99.90
2022-09-02T16:14:43.028Z,99.90
2022-09-02T16:17:10.509Z,99.90
2022-09-02T16:19:37.812Z,99.90
2022-09-02T16:22:08.047Z,99.90
2022-09-02T16:24:35.459Z,99.90
2022-09-02T16:27:03.247Z,99.90
2022-09-02T16:29:30.755Z,99.90
2022-09-02T16:32:14.435Z,99.90
2022-09-02T16:34:46.831Z,99.90
2022-09-02T16:37:14.534Z,99.90
2022-09-02T16:39:42.355Z,99.90
2022-09-02T16:42:09.890Z,99.90
2022-09-02T16:44:37.578Z,99.90
2022-09-02T16:47:05.406Z,99.90
2022-09-02T16:49:34.519Z,99.90
2022-09-02T16:52:01.687Z,99.90
2022-09-02T16:54:33.617Z,99.90
2022-09-02T16:57:04.074Z,99.90
2022-09-02T16:59:31.757Z,99.90
2022-09-02T17:01:59.039Z,99.90
2022-09-02T17:04:26.440Z,99.90
2022-09-02T17:06:53.733Z,99.90
2022-09-02T17:09:21.015Z,99.90
2022-09-02T17:11:48.412Z,99.90
2022-09-02T17:14:17.657Z,99.90
2022-09-02T17:16:47.720Z,99.90
2022-09-02T17:19:21.877Z,99.90
2022-09-02T17:21:53.943Z,99.90
2022-09-02T17:24:24.720Z,99.90
2022-09-02T17:26:56.082Z,99.90
2022-09-02T17:32:13.693Z,99.90
2022-09-02T17:34:41.383Z,99.90
2022-09-02T17:37:08.546Z,99.90
2022-09-02T17:39:35.698Z,99.90
2022-09-02T17:42:05.296Z,99.90
2022-09-02T17:44:37.528Z,99.90
2022-09-02T17:47:08.677Z,99.90
2022-09-02T17:49:37.392Z,99.90
2022-09-02T17:52:06.920Z,99.90
2022-09-02T17:54:36.264Z,99.90
2022-09-02T17:57:25.642Z,99.90
2022-09-02T18:00:02.347Z,99.90
2022-09-02T18:02:35.742Z,99.90
2022-09-02T18:05:28.399Z,99.90
2022-09-02T18:08:05.987Z,99.90
2022-09-02T18:10:36.757Z,99.90
2022-09-02T18:13:06.846Z,99.90
2022-09-02T18:15:47.312Z,99.90
2022-09-02T18:18:16.991Z,99.90
2022-09-02T18:20:47.331Z,99.90
2022-09-02T18:23:47.463Z,99.90
2022-09-02T18:26:15.163Z,99.90
2022-09-02T18:29:11.063Z,99.90
2022-09-02T18:31:55.697Z,99.90
2022-09-02T18:34:32.483Z,99.90
2022-09-02T18:37:24.816Z,99.90
2022-09-02T18:40:13.828Z,99.90
2022-09-02T18:42:56.239Z,99.90
2022-09-02T18:45:31.970Z,99.90
2022-09-02T18:48:05.426Z,99.90
2022-09-02T18:50:51.571Z,99.90
2022-09-02T18:53:27.393Z,99.90
2022-09-02T18:55:56.279Z,99.90
2022-09-02T18:58:44.936Z,99.90
2022-09-02T19:01:19.312Z,99.90
2022-09-02T19:03:47.022Z,99.90
2022-09-02T19:06:20.554Z,99.90
2022-09-02T19:08:55.738Z,99.90
2022-09-02T19:11:24.236Z,99.90
2022-09-02T19:14:14.523Z,99.90
2022-09-02T19:16:41.727Z,99.90
2022-09-02T19:19:10.487Z,99.90
2022-09-02T19:22:00.772Z,99.90
2022-09-02T19:24:33.238Z,99.90
2022-09-02T19:27:06.854Z,99.90
2022-09-02T19:29:39.118Z,99.90
2022-09-02T19:32:08.702Z,99.90
2022-09-02T19:34:39.772Z,99.90
2022-09-02T19:37:07.465Z,99.90
2022-09-02T19:39:35.306Z,99.90
2022-09-02T19:42:02.751Z,99.90
2022-09-02T19:44:30.312Z,99.90
2022-09-02T19:47:49.862Z,99.90
2022-09-02T19:49:44.931Z,99.90
2022-09-02T19:52:12.336Z,99.90
2022-09-02T19:54:41.569Z,99.90
2022-09-02T19:57:09.136Z,99.90
2022-09-02T19:59:36.384Z,99.90
2022-09-02T20:02:04.590Z,99.90
2022-09-02T20:04:33.345Z,99.90
2022-09-02T20:07:02.091Z,99.90
2022-09-02T20:09:29.626Z,99.90
2022-09-02T20:11:57.162Z,99.90
2022-09-02T20:14:24.901Z,99.90
2022-09-02T20:16:58.699Z,99.90
2022-09-02T20:19:26.476Z,99.90
2022-09-02T20:21:54.001Z,99.90
2022-09-02T20:24:25.688Z,99.90
2022-09-02T20:26:59.145Z,99.90
2022-09-02T20:29:29.125Z,99.90
2022-09-02T20:32:27.989Z,99.90
2022-09-02T20:35:15.237Z,99.90
2022-09-02T20:38:25.306Z,99.90
2022-09-02T20:41:21.241Z,99.90
2022-09-02T20:44:06.823Z,99.90
2022-09-02T20:47:05.879Z,99.90
2022-09-02T20:50:06.288Z,99.90
2022-09-02T20:52:40.328Z,99.90
2022-09-02T20:55:21.849Z,99.90
2022-09-02T20:58:18.568Z,99.90
2022-09-02T21:00:56.030Z,99.90
2022-09-02T21:03:26.110Z,99.90
2022-09-02T21:05:58.314Z,99.90
2022-09-02T21:08:34.781Z,99.90
2022-09-02T21:11:09.631Z,99.90
2022-09-02T21:13:51.945Z,99.90
2022-09-02T21:16:39.452Z,99.90
2022-09-02T21:19:16.567Z,99.90
2022-09-02T21:22:10.144Z,99.90
2022-09-02T21:25:07.897Z,99.90
2022-09-02T21:27:47.028Z,99.90
2022-09-02T21:30:20.016Z,99.90
2022-09-02T21:33:10.650Z,99.90
2022-09-02T21:35:42.581Z,99.90
2022-09-02T21:38:20.700Z,99.90
2022-09-02T21:41:06.360Z,99.90
2022-09-02T21:44:14.636Z,99.90
2022-09-02T21:46:44.577Z,99.90
2022-09-02T21:49:42.212Z,99.90
2022-09-02T21:52:44.175Z,99.90
2022-09-02T21:55:42.139Z,99.90
2022-09-02T21:58:26.735Z,99.90
2022-09-02T22:01:20.714Z,99.90
2022-09-02T22:03:56.383Z,99.90
2022-09-02T22:06:41.295Z,99.90
2022-09-02T22:09:22.666Z,99.90
2022-09-02T22:12:14.735Z,99.90
2022-09-02T22:15:01.935Z,99.90
2022-09-02T22:17:49.325Z,99.90
2022-09-02T22:20:21.197Z,99.90
2022-09-02T22:22:54.468Z,99.90
2022-09-02T22:25:23.009Z,99.90
2022-09-02T22:28:00.666Z,99.90
2022-09-02T22:30:28.225Z,99.90
2022-09-02T22:33:11.279Z,99.90
2022-09-02T22:35:55.105Z,99.90
2022-09-02T22:38:40.999Z,99.90
2022-09-02T22:41:23.885Z,99.90
2022-09-02T22:44:06.401Z,99.90
2022-09-02T22:47:15.064Z,99.90
2022-09-02T22:50:12.325Z,99.90
2022-09-02T22:52:55.033Z,99.90
2022-09-02T22:55:46.602Z,99.90
2022-09-02T22:58:43.990Z,99.90
2022-09-02T23:01:17.245Z,99.90
2022-09-02T23:03:53.376Z,99.90
2022-09-02T23:06:32.412Z,99.90
2022-09-02T23:09:08.916Z,99.90
2022-09-02T23:11:43.134Z,99.90
2022-09-02T23:14:29.039Z,99.90
2022-09-02T23:17:23.917Z,99.90
2022-09-02T23:20:00.439Z,99.90
2022-09-02T23:22:41.063Z,99.90
2022-09-02T23:25:26.498Z,99.90
2022-09-02T23:28:13.747Z,99.90
2022-09-02T23:31:18.790Z,99.90
2022-09-02T23:34:10.752Z,99.90
2022-09-02T23:36:47.434Z,99.90
2022-09-02T23:39:44.237Z,99.90
2022-09-02T23:42:13.130Z,99.90
2022-09-02T23:44:42.286Z,99.90
2022-09-02T23:47:26.298Z,99.90
2022-09-02T23:50:21.165Z,99.90
2022-09-02T23:53:11.301Z,99.90
2022-09-02T23:56:32.771Z,99.90
2022-09-02T23:59:15.524Z,99.90
